首页
METAR-TAF:

METAR-TAF

机场 :

蒂華納, 墨西哥

纬度: 32-33N, 经度: 116-58W, 海拔: 152米

当前天气观测

该预报发布于42分钟前的23:49 UTC
风速12节,风向西转西南
温度 24°C
湿度 65%
气压 1015 hPa
能見度: 16.1公里
天空无云

METAR: MMTJ 152349Z 24012KT 10SM SKC 24/17 A2997 RMK SLP148 57029 970 DSTN CB-E ISOL CI ST-W

时间: 17:31 (00:31 UTC)

预报

该预报发布于1小时和11分钟前的23:20 UTC
预报有效从16日的 00点(UTC)到 17日的 00点(UTC)
风速15节,风向西转西南
能見度: 10公里
天空无云
成为
从 16日的 02点(UTC)到 16日的 03点(UTC)
风速6节,风向西
从 16日的 0900点(UTC)
风速节,风向
能見度: 6.4公里
阴天层高于800英尺
轻雾
短暂存在
从 16日的 12点(UTC)到 16日的 14点(UTC)
能見度: 3.2公里
阴天层高于600英尺
轻雾
从 16日的 1600点(UTC)
风速节,风向
能見度: 8.0公里
多云层高于1500英尺
从 16日的 1800点(UTC)
风速10节,风向西
能見度: 10公里
散云层高于14000英尺

TAF: MMTJ 152320Z 1600/1700 24015KT P6SM SKC TX24/1620Z TN18/1609Z BECMG 1602/1603 28006KT FM160900 00000KT 4SM BR OVC008 TEMPO 1612/1614 2SM BR OVC006 FM161600 00000KT 5SM HZ BKN015 FM161800 27010KT P6SM SCT140

超过4000个机场的气象观测和天气预报(METAR&TAF报告)。

可查询的气象台以黄色和红色小点在地图上表示。

将鼠标移到小点上方,可查看气象台名称。

然后点击查看天气观测和预报。

如需切换地图:点击带黑十字的绿色按钮放大地图;点击带横线的绿色按钮缩小地图;或者点击绿色箭头查看邻近地区的地图。


METAR-TAF: